createdAt,value
2022-12-09T00:01:19.992Z,94488.81
2022-12-09T00:03:47.901Z,94486.50
2022-12-09T00:06:20.814Z,94487.81
2022-12-09T00:08:48.493Z,94505.19
2022-12-09T00:11:15.587Z,94480.84
2022-12-09T00:13:42.642Z,94512.09
2022-12-09T00:16:12.145Z,94516.31
2022-12-09T00:18:40.203Z,94489.56
2022-12-09T00:21:33.844Z,94502.19
2022-12-09T00:24:03.943Z,94496.09
2022-12-09T00:26:31.702Z,94493.69
2022-12-09T00:28:58.850Z,94503.34
2022-12-09T00:31:29.300Z,94496.66
2022-12-09T00:33:58.401Z,94507.31
2022-12-09T00:36:26.236Z,94493.59
2022-12-09T00:38:55.171Z,94510.13
2022-12-09T00:41:22.602Z,94522.69
2022-12-09T00:43:50.984Z,94519.00
2022-12-09T00:46:18.511Z,94509.84
2022-12-09T00:48:46.424Z,94510.47
2022-12-09T00:51:19.192Z,94505.69
2022-12-09T00:53:47.758Z,94496.56
2022-12-09T00:56:15.223Z,94480.47
2022-12-09T00:58:42.348Z,94498.63
2022-12-09T01:01:09.964Z,94490.41
2022-12-09T01:03:38.065Z,94495.78
2022-12-09T01:06:11.349Z,94491.78
2022-12-09T01:08:39.537Z,94491.78
2022-12-09T01:11:17.393Z,94490.19
2022-12-09T01:13:46.150Z,94482.13
2022-12-09T01:16:18.906Z,94493.94
2022-12-09T01:18:46.597Z,94496.09
2022-12-09T01:21:14.557Z,94491.81
2022-12-09T01:23:41.840Z,94494.81
2022-12-09T01:26:09.125Z,94495.06
2022-12-09T01:28:37.892Z,94505.28
2022-12-09T01:31:10.888Z,94504.81
2022-12-09T01:33:38.312Z,94493.75
2022-12-09T01:36:15.692Z,94502.16
2022-12-09T01:38:43.729Z,94500.09
2022-12-09T01:41:11.072Z,94500.09
2022-12-09T01:43:39.806Z,94488.28
2022-12-09T01:46:07.670Z,94488.56
2022-12-09T01:48:47.225Z,94482.13
2022-12-09T01:51:19.632Z,94492.59
2022-12-09T01:53:50.191Z,94491.84
2022-12-09T01:56:23.032Z,94497.47
2022-12-09T01:58:52.868Z,94496.66
2022-12-09T02:01:21.551Z,94495.59
2022-12-09T02:03:49.479Z,94483.59
2022-12-09T02:06:17.414Z,94474.78
2022-12-09T02:08:46.403Z,94469.44
2022-12-09T02:11:58.431Z,94462.75
2022-12-09T02:14:41.471Z,94458.47
2022-12-09T02:17:41.234Z,94455.94
2022-12-09T02:20:23.743Z,94465.31
2022-12-09T02:23:03.737Z,94468.75
2022-12-09T02:25:46.001Z,94476.75
2022-12-09T02:29:11.395Z,94457.25
2022-12-09T02:32:33.752Z,94471.84
2022-12-09T02:35:10.193Z,94474.56
2022-12-09T02:37:49.825Z,94491.16
2022-12-09T02:40:21.873Z,94470.50
2022-12-09T02:42:50.217Z,94476.16
2022-12-09T02:45:20.334Z,94497.53
2022-12-09T02:47:54.605Z,94493.44
2022-12-09T02:50:26.050Z,94493.44
2022-12-09T02:52:55.620Z,94482.47
2022-12-09T02:55:23.620Z,94493.16
2022-12-09T02:57:59.059Z,94493.97
2022-12-09T03:00:27.744Z,94484.06
2022-12-09T03:03:01.699Z,94488.50
2022-12-09T03:05:50.274Z,94491.28
2022-12-09T03:08:50.814Z,94482.97
2022-12-09T03:11:20.821Z,94487.75
2022-12-09T03:14:14.554Z,94504.09
2022-12-09T03:16:54.546Z,94500.56
2022-12-09T03:19:47.237Z,94503.84
2022-12-09T03:22:20.199Z,94498.28
2022-12-09T03:24:55.819Z,94478.25
2022-12-09T03:27:28.518Z,94480.91
2022-12-09T03:29:56.235Z,94469.72
2022-12-09T03:32:27.126Z,94464.81
2022-12-09T03:35:01.856Z,94477.13
2022-12-09T03:37:31.018Z,94479.28
2022-12-09T03:39:59.714Z,94476.50
2022-12-09T03:42:31.816Z,94475.47
2022-12-09T03:45:04.185Z,94476.78
2022-12-09T03:47:33.257Z,94473.66
2022-12-09T03:50:00.570Z,94470.75
2022-12-09T03:52:49.516Z,94469.09
2022-12-09T03:55:58.705Z,94468.25
2022-12-09T03:58:28.241Z,94477.88
2022-12-09T04:00:56.020Z,94475.19
2022-12-09T04:03:23.510Z,94474.34
2022-12-09T04:05:50.703Z,94481.16
2022-12-09T04:08:20.658Z,94474.31
2022-12-09T04:10:47.732Z,94477.81
2022-12-09T04:13:14.983Z,94475.94
2022-12-09T04:15:42.401Z,94472.72
2022-12-09T04:18:09.772Z,94478.25
2022-12-09T04:20:36.955Z,94487.81
2022-12-09T04:23:04.195Z,94489.22
2022-12-09T04:25:31.291Z,94501.25
2022-12-09T04:27:58.361Z,94482.53
2022-12-09T04:30:25.525Z,94483.66
2022-12-09T04:32:52.785Z,94478.88
2022-12-09T04:35:19.868Z,94477.28
2022-12-09T04:37:47.351Z,94498.09
2022-12-09T04:40:21.323Z,94476.16
2022-12-09T04:42:50.629Z,94475.06
2022-12-09T04:45:17.944Z,94477.72
2022-12-09T04:47:45.140Z,94477.69
2022-12-09T04:50:13.325Z,94493.47
2022-12-09T04:52:41.038Z,94492.75
2022-12-09T04:55:08.495Z,94499.22
2022-12-09T04:57:36.292Z,94483.47
2022-12-09T05:00:05.851Z,94492.28
2022-12-09T05:02:33.357Z,94488.00
2022-12-09T05:05:03.360Z,94492.56
2022-12-09T05:07:31.566Z,94495.00
2022-12-09T05:09:59.619Z,94501.97
2022-12-09T05:12:26.976Z,94499.53
2022-12-09T05:14:54.123Z,94498.69
2022-12-09T05:17:21.147Z,94496.06
2022-12-09T05:19:48.562Z,94475.22
2022-12-09T05:22:19.639Z,94495.28
2022-12-09T05:24:49.861Z,94476.06
2022-12-09T05:27:16.909Z,94494.00
2022-12-09T05:29:44.311Z,94494.56
2022-12-09T05:32:11.747Z,94498.88
2022-12-09T05:34:39.791Z,94501.53
2022-12-09T05:37:08.275Z,94505.56
2022-12-09T05:39:35.612Z,94497.22
2022-12-09T05:42:03.017Z,94515.38
2022-12-09T05:44:31.212Z,94518.88
2022-12-09T05:46:58.276Z,94510.31
2022-12-09T05:49:26.117Z,94501.97
2022-12-09T05:51:54.372Z,94516.88
2022-12-09T05:54:21.622Z,94511.25
2022-12-09T05:56:49.142Z,94519.28
2022-12-09T05:59:16.361Z,94499.22
2022-12-09T06:01:43.977Z,94487.41
2022-12-09T06:04:13.931Z,94508.03
2022-12-09T06:06:41.579Z,94486.69
2022-12-09T06:09:12.374Z,94484.63
2022-12-09T06:11:40.525Z,94510.28
2022-12-09T06:14:10.327Z,94502.78
2022-12-09T06:16:38.905Z,94515.84
2022-12-09T06:19:06.738Z,94518.53
2022-12-09T06:21:34.112Z,94515.00
2022-12-09T06:24:01.385Z,94538.00
2022-12-09T06:26:30.232Z,94523.91
2022-12-09T06:28:58.466Z,94538.41
2022-12-09T06:31:27.660Z,94519.91
2022-12-09T06:33:57.309Z,94529.31
2022-12-09T06:36:26.057Z,94529.13
2022-12-09T06:38:54.070Z,94530.34
2022-12-09T06:41:21.301Z,94539.94
2022-12-09T06:43:48.837Z,94543.19
2022-12-09T06:46:23.743Z,94531.22
2022-12-09T06:48:52.163Z,94544.66
2022-12-09T06:51:25.130Z,94523.31
2022-12-09T06:53:53.014Z,94535.25
2022-12-09T06:56:20.979Z,94540.66
2022-12-09T06:58:49.227Z,94545.44
2022-12-09T07:01:25.286Z,94548.41
2022-12-09T07:03:56.759Z,94539.53
2022-12-09T07:06:34.775Z,94532.03
2022-12-09T07:09:16.859Z,94543.81
2022-12-09T07:11:46.348Z,94536.53
2022-12-09T07:14:15.429Z,94547.72
2022-12-09T07:16:43.655Z,94537.78
2022-12-09T07:19:19.352Z,94549.50
2022-12-09T07:21:47.010Z,94546.22
2022-12-09T07:24:16.112Z,94549.66
2022-12-09T07:26:43.530Z,94542.59
2022-12-09T07:29:11.085Z,94546.00
2022-12-09T07:31:38.424Z,94539.00
2022-12-09T07:34:06.777Z,94543.22
2022-12-09T07:36:36.081Z,94552.25
2022-12-09T07:39:11.455Z,94556.22
2022-12-09T07:41:38.745Z,94550.44
2022-12-09T07:44:06.390Z,94548.47
2022-12-09T07:46:34.212Z,94549.22
2022-12-09T07:49:03.681Z,94547.03
2022-12-09T07:51:31.408Z,94535.94
2022-12-09T08:23:59.900Z,94546.75
2022-12-09T08:27:11.251Z,94539.09
2022-12-09T08:29:56.339Z,94533.03
2022-12-09T08:32:35.789Z,94552.94
2022-12-09T08:38:48.908Z,94542.91
2022-12-09T08:44:57.070Z,94538.34
2022-12-09T08:47:34.692Z,94525.03
2022-12-09T08:57:13.000Z,94496.44
2022-12-09T09:02:45.901Z,94478.78
2022-12-09T09:05:22.096Z,94479.50
2022-12-09T09:10:55.065Z,94475.06
2022-12-09T09:13:45.941Z,94471.88
2022-12-09T09:17:06.936Z,94478.00
2022-12-09T09:26:40.000Z,94455.91
2022-12-09T09:29:48.396Z,94458.00
2022-12-09T09:32:16.582Z,94438.91
2022-12-09T09:34:46.856Z,94422.94
2022-12-09T09:37:15.245Z,94419.50
2022-12-09T09:39:46.565Z,94415.44
2022-12-09T09:42:18.361Z,94414.59
2022-12-09T09:44:56.296Z,94418.94
2022-12-09T09:48:07.294Z,94430.28
2022-12-09T09:50:42.881Z,94426.31
2022-12-09T09:53:38.457Z,94428.41
2022-12-09T09:56:53.051Z,94411.28
2022-12-09T10:00:05.040Z,94397.63
2022-12-09T10:03:06.282Z,94392.34
2022-12-09T10:05:43.789Z,94378.38
2022-12-09T10:09:06.045Z,94360.56
2022-12-09T10:12:03.304Z,94356.13
2022-12-09T10:15:37.610Z,94361.13
2022-12-09T10:18:49.868Z,94344.63
2022-12-09T10:21:29.462Z,94344.44
2022-12-09T10:24:59.923Z,94342.06
2022-12-09T10:27:51.342Z,94330.94
2022-12-09T10:30:46.068Z,94337.31
2022-12-09T10:33:16.681Z,94332.84
2022-12-09T10:42:36.125Z,94323.81
2022-12-09T10:45:17.191Z,94317.91
2022-12-09T10:48:13.260Z,94314.28
2022-12-09T10:54:42.893Z,94316.00
2022-12-09T10:57:53.219Z,94310.75
2022-12-09T11:00:34.545Z,94314.25
2022-12-09T11:03:48.175Z,94308.03
2022-12-09T11:06:57.318Z,94308.97
2022-12-09T11:10:14.412Z,94301.50
2022-12-09T11:19:10.665Z,94303.22
2022-12-09T11:21:49.350Z,94292.88
2022-12-09T11:24:53.037Z,94291.91
2022-12-09T11:28:07.389Z,94287.91
2022-12-09T11:31:47.317Z,94277.75
2022-12-09T11:34:44.697Z,94269.09
2022-12-09T11:37:40.373Z,94264.81
2022-12-09T11:40:49.127Z,94265.75
2022-12-09T11:44:10.496Z,94255.19
2022-12-09T11:50:35.417Z,94252.41
2022-12-09T11:53:45.706Z,94249.25
2022-12-09T11:56:23.107Z,94255.19
2022-12-09T11:59:15.932Z,94253.50
2022-12-09T12:02:50.435Z,94255.31
2022-12-09T12:57:28.588Z,94231.88
2022-12-09T13:11:57.358Z,94229.16
2022-12-09T13:15:03.260Z,94231.78
2022-12-09T13:25:46.595Z,94237.75
2022-12-09T13:51:59.594Z,94220.53
2022-12-09T13:54:28.260Z,94223.25
2022-12-09T13:57:40.044Z,94230.56
2022-12-09T14:00:18.766Z,94215.56
2022-12-09T14:02:57.259Z,94233.53
2022-12-09T14:05:29.208Z,94232.00
2022-12-09T14:08:03.844Z,94234.31
2022-12-09T14:10:50.128Z,94227.63
2022-12-09T14:13:43.500Z,94227.63
2022-12-09T14:16:35.025Z,94219.78
2022-12-09T14:19:20.382Z,94211.22
2022-12-09T14:22:39.752Z,94208.63
2022-12-09T14:25:49.707Z,94210.31
2022-12-09T14:28:35.705Z,94206.41
2022-12-09T14:31:08.696Z,94197.91
2022-12-09T14:33:44.790Z,94186.88
2022-12-09T14:36:31.948Z,94203.97
2022-12-09T14:39:24.142Z,94199.88
2022-12-09T14:42:21.637Z,94214.69
2022-12-09T14:44:59.440Z,94213.50
2022-12-09T14:47:31.050Z,94210.75
2022-12-09T14:50:09.039Z,94201.88
2022-12-09T14:52:36.491Z,94189.28
2022-12-09T14:55:09.372Z,94190.06
2022-12-09T14:57:44.442Z,94191.56
2022-12-09T15:00:40.362Z,94191.91
2022-12-09T15:03:45.247Z,94199.91
2022-12-09T15:06:17.213Z,94193.69
2022-12-09T15:08:44.296Z,94199.41
2022-12-09T15:11:18.478Z,94190.38
2022-12-09T15:13:48.315Z,94201.97
2022-12-09T15:16:21.612Z,94202.66
2022-12-09T15:18:50.236Z,94177.81
2022-12-09T15:21:31.677Z,94189.34
2022-12-09T15:24:00.201Z,94187.34
2022-12-09T15:26:41.906Z,94177.50
2022-12-09T15:29:22.420Z,94186.72
2022-12-09T15:31:51.004Z,94192.28
2022-12-09T15:34:24.771Z,94182.06
2022-12-09T15:37:00.283Z,94173.69
2022-12-09T15:39:38.584Z,94165.03
2022-12-09T15:42:11.085Z,94176.47
2022-12-09T15:45:02.725Z,94179.16
2022-12-09T15:47:47.487Z,94174.28
2022-12-09T15:50:47.601Z,94177.59
2022-12-09T15:53:38.020Z,94175.56
2022-12-09T15:56:37.115Z,94148.25
2022-12-09T15:59:35.597Z,94164.09
2022-12-09T16:02:03.203Z,94163.66
2022-12-09T16:04:35.536Z,94167.94
2022-12-09T16:07:07.547Z,94165.09
2022-12-09T16:09:35.215Z,94153.16
2022-12-09T16:12:02.523Z,94157.16
2022-12-09T16:14:43.263Z,94147.03
2022-12-09T16:17:22.582Z,94166.84
2022-12-09T16:19:50.205Z,94143.69
2022-12-09T16:22:39.713Z,94168.41
2022-12-09T16:25:21.995Z,94141.63
2022-12-09T16:27:56.561Z,94197.72
2022-12-09T16:30:26.047Z,94173.00
2022-12-09T16:32:57.775Z,94166.03
2022-12-09T16:35:28.086Z,94168.59
2022-12-09T16:38:16.488Z,94159.41
2022-12-09T16:41:11.305Z,94163.66
2022-12-09T16:43:53.898Z,94178.09
2022-12-09T16:46:41.352Z,94168.91
2022-12-09T16:49:08.796Z,94179.19
2022-12-09T16:51:38.127Z,94162.72
2022-12-09T16:54:19.359Z,94188.19
2022-12-09T16:56:47.643Z,94169.06
2022-12-09T16:59:14.532Z,94177.47
2022-12-09T17:01:42.623Z,94173.78
2022-12-09T17:04:17.715Z,94185.22
2022-12-09T17:06:45.000Z,94177.16
2022-12-09T17:09:13.394Z,94179.69
2022-12-09T17:11:45.389Z,94181.41
2022-12-09T17:14:14.408Z,94176.47
2022-12-09T17:16:41.552Z,94179.69
2022-12-09T17:19:08.616Z,94181.41
2022-12-09T17:21:35.620Z,94175.22
2022-12-09T17:24:02.651Z,94186.97
2022-12-09T17:26:29.700Z,94194.69
2022-12-09T17:29:01.576Z,94193.75
2022-12-09T17:31:30.161Z,94186.16
2022-12-09T17:33:57.505Z,94190.56
2022-12-09T17:36:24.660Z,94203.56
2022-12-09T17:38:51.917Z,94187.13
2022-12-09T17:41:23.749Z,94193.44
2022-12-09T17:43:51.791Z,94196.81
2022-12-09T17:46:19.116Z,94192.31
2022-12-09T17:48:46.204Z,94189.72
2022-12-09T17:51:15.337Z,94196.88
2022-12-09T17:53:43.031Z,94193.50
2022-12-09T17:56:15.606Z,94183.84
2022-12-09T17:58:43.057Z,94188.53
2022-12-09T18:01:16.290Z,94182.09
2022-12-09T18:04:04.400Z,94181.63
2022-12-09T18:06:34.813Z,94183.38
2022-12-09T18:09:04.820Z,94175.97
2022-12-09T18:11:31.790Z,94181.84
2022-12-09T18:13:59.040Z,94190.97
2022-12-09T18:16:26.162Z,94176.88
2022-12-09T18:18:53.446Z,94185.41
2022-12-09T18:21:20.786Z,94185.31
2022-12-09T18:23:48.716Z,94179.09
2022-12-09T18:26:18.164Z,94176.97
2022-12-09T18:28:45.797Z,94167.75
2022-12-09T18:31:16.082Z,94166.94
2022-12-09T18:33:43.176Z,94147.59
2022-12-09T18:36:13.536Z,94141.34
2022-12-09T18:38:41.524Z,94135.81
2022-12-09T18:41:20.570Z,94142.22
2022-12-09T18:43:50.450Z,94142.84
2022-12-09T18:46:25.735Z,94137.44
2022-12-09T18:49:33.829Z,94122.09
2022-12-09T18:52:00.755Z,94111.03
2022-12-09T18:54:28.902Z,94119.41
2022-12-09T18:56:56.652Z,94129.13
2022-12-09T18:59:25.773Z,94118.19
2022-12-09T19:01:53.613Z,94122.91
2022-12-09T19:04:26.026Z,94133.03
2022-12-09T19:06:55.575Z,94136.63
2022-12-09T19:09:25.734Z,94129.53
2022-12-09T19:11:53.501Z,94129.13
2022-12-09T19:14:22.262Z,94120.97
2022-12-09T19:16:50.078Z,94118.97
2022-12-09T19:19:19.913Z,94130.16
2022-12-09T19:21:47.279Z,94126.06
2022-12-09T19:24:25.650Z,94132.53
2022-12-09T19:26:55.598Z,94125.53
2022-12-09T19:29:24.951Z,94122.06
2022-12-09T19:31:52.876Z,94123.31
2022-12-09T19:34:25.751Z,94114.78
2022-12-09T19:36:54.678Z,94109.59
2022-12-09T19:39:24.043Z,94123.94
2022-12-09T19:41:51.700Z,94123.78
2022-12-09T19:44:44.545Z,94115.56
2022-12-09T19:47:07.918Z,94086.91
2022-12-09T19:49:34.927Z,94104.72
2022-12-09T19:52:03.908Z,94106.84
2022-12-09T19:54:31.099Z,94097.09
2022-12-09T19:56:58.087Z,94107.34
2022-12-09T19:59:27.149Z,94118.00
2022-12-09T20:01:54.758Z,94113.25
2022-12-09T20:04:48.294Z,94139.69
2022-12-09T20:07:11.873Z,94094.91
2022-12-09T20:09:39.990Z,94087.41
2022-12-09T20:12:07.125Z,94101.72
2022-12-09T20:14:34.367Z,94106.31
2022-12-09T20:17:01.244Z,94104.06
2022-12-09T20:19:28.421Z,94141.81
2022-12-09T20:21:55.499Z,94093.66
2022-12-09T20:24:22.831Z,94105.81
2022-12-09T20:26:49.797Z,94088.91
2022-12-09T20:29:17.250Z,94083.06
2022-12-09T20:31:44.544Z,94090.28
2022-12-09T20:34:19.246Z,94091.84
2022-12-09T20:36:46.560Z,94095.16
2022-12-09T20:39:16.596Z,94083.84
2022-12-09T20:41:44.755Z,94092.06
2022-12-09T20:44:15.978Z,94093.31
2022-12-09T20:46:47.193Z,94106.59
2022-12-09T20:49:14.118Z,94094.75
2022-12-09T20:51:44.057Z,94085.25
2022-12-09T20:54:11.858Z,94087.78
2022-12-09T20:56:38.933Z,94075.63
2022-12-09T20:59:07.058Z,94087.94
2022-12-09T21:01:36.033Z,94068.34
2022-12-09T21:04:06.220Z,94082.56
2022-12-09T21:06:37.705Z,94071.81
2022-12-09T21:09:08.716Z,94077.50
2022-12-09T21:11:36.300Z,94069.13
2022-12-09T21:14:05.192Z,94077.34
2022-12-09T21:16:34.987Z,94063.84
2022-12-09T21:19:05.829Z,94062.44
2022-12-09T21:21:34.757Z,94061.63
2022-12-09T21:24:02.449Z,94079.97
2022-12-09T21:26:30.548Z,94079.78
2022-12-09T21:29:01.144Z,94073.47
2022-12-09T21:31:34.393Z,94072.09
2022-12-09T21:34:03.851Z,94059.47
2022-12-09T21:36:42.874Z,94041.47
2022-12-09T21:39:13.494Z,94031.97
2022-12-09T21:41:41.510Z,94050.63
2022-12-09T21:44:13.312Z,94045.31
2022-12-09T21:46:40.575Z,94050.00
2022-12-09T21:49:07.729Z,94057.75
2022-12-09T21:51:35.662Z,94072.72
2022-12-09T21:54:03.380Z,94054.03
2022-12-09T21:56:33.095Z,94055.63
2022-12-09T21:59:00.669Z,94074.53
2022-12-09T22:01:34.396Z,94048.16
2022-12-09T22:04:03.397Z,94056.53
2022-12-09T22:06:30.812Z,94051.91
2022-12-09T22:08:59.902Z,94061.38
2022-12-09T22:11:30.911Z,94054.25
2022-12-09T22:13:59.895Z,94041.78
2022-12-09T22:16:29.658Z,94042.91
2022-12-09T22:18:58.763Z,94038.97
2022-12-09T22:21:29.180Z,94036.91
2022-12-09T22:23:59.772Z,94046.69
2022-12-09T22:26:27.685Z,94033.28
2022-12-09T22:28:55.202Z,94036.13
2022-12-09T22:31:24.687Z,94040.13
2022-12-09T22:33:53.990Z,94034.13
2022-12-09T22:36:21.733Z,94040.75
2022-12-09T22:38:48.987Z,94025.53
2022-12-09T22:41:19.906Z,94021.91
2022-12-09T22:43:49.489Z,94018.78
2022-12-09T22:46:25.827Z,94044.66
2022-12-09T22:48:53.257Z,94022.66
2022-12-09T22:51:22.746Z,94038.16
2022-12-09T22:53:51.434Z,94030.38
2022-12-09T22:56:18.748Z,94023.88
2022-12-09T22:58:46.203Z,94023.22
2022-12-09T23:01:22.499Z,94014.19
2022-12-09T23:03:50.053Z,94019.25
2022-12-09T23:06:17.099Z,94032.22
2022-12-09T23:08:45.432Z,94027.28
2022-12-09T23:11:18.108Z,94033.44
2022-12-09T23:13:45.392Z,94015.59
2022-12-09T23:16:18.136Z,94014.03
2022-12-09T23:18:45.481Z,94024.63
2022-12-09T23:21:18.798Z,94012.72
2022-12-09T23:23:47.371Z,94011.31
2022-12-09T23:26:26.707Z,93998.34
2022-12-09T23:28:55.774Z,93999.94
2022-12-09T23:31:25.856Z,94009.97
2022-12-09T23:33:53.963Z,94007.53
2022-12-09T23:36:23.527Z,93996.19
2022-12-09T23:38:52.337Z,93982.13
2022-12-09T23:41:21.113Z,94002.44
2022-12-09T23:43:49.156Z,94005.38
2022-12-09T23:46:21.677Z,93994.38
2022-12-09T23:48:49.957Z,93984.47
2022-12-09T23:51:29.905Z,93993.81
2022-12-09T23:54:02.560Z,93993.63
2022-12-09T23:56:32.137Z,93978.97
2022-12-09T23:59:08.739Z,93992.09
